sensor_id;sensor_type;location;lat;lon;timestamp;P1;durP1;ratioP1;P2;durP2;ratioP2
5811;SDS011;2932;52.400;9.558;2023-06-04T00:02:00;1.50;;;1.40;;
5811;SDS011;2932;52.400;9.558;2023-06-04T00:04:29;1.58;;;1.13;;
5811;SDS011;2932;52.400;9.558;2023-06-04T00:07:00;1.97;;;1.13;;
5811;SDS011;2932;52.400;9.558;2023-06-04T00:09:25;1.10;;;1.00;;
5811;SDS011;2932;52.400;9.558;2023-06-04T00:11:53;1.63;;;1.13;;
5811;SDS011;2932;52.400;9.558;2023-06-04T00:14:18;1.70;;;1.20;;
5811;SDS011;2932;52.400;9.558;2023-06-04T00:16:43;2.87;;;1.20;;
5811;SDS011;2932;52.400;9.558;2023-06-04T00:19:09;1.77;;;1.30;;
5811;SDS011;2932;52.400;9.558;2023-06-04T00:21:34;3.67;;;1.40;;
5811;SDS011;2932;52.400;9.558;2023-06-04T00:24:00;2.87;;;1.70;;
5811;SDS011;2932;52.400;9.558;2023-06-04T00:26:26;1.95;;;1.30;;
5811;SDS011;2932;52.400;9.558;2023-06-04T00:28:55;3.17;;;1.27;;
5811;SDS011;2932;52.400;9.558;2023-06-04T00:31:23;1.20;;;1.10;;
5811;SDS011;2932;52.400;9.558;2023-06-04T00:33:48;2.70;;;1.47;;
5811;SDS011;2932;52.400;9.558;2023-06-04T00:36:14;2.05;;;1.38;;
5811;SDS011;2932;52.400;9.558;2023-06-04T00:38:39;1.40;;;1.20;;
5811;SDS011;2932;52.400;9.558;2023-06-04T00:41:05;4.30;;;1.37;;
5811;SDS011;2932;52.400;9.558;2023-06-04T00:43:30;3.30;;;1.30;;
5811;SDS011;2932;52.400;9.558;2023-06-04T00:45:56;2.00;;;1.20;;
5811;SDS011;2932;52.400;9.558;2023-06-04T00:48:22;2.20;;;1.20;;
5811;SDS011;2932;52.400;9.558;2023-06-04T00:50:48;3.43;;;1.40;;
5811;SDS011;2932;52.400;9.558;2023-06-04T00:53:16;6.10;;;2.10;;
5811;SDS011;2932;52.400;9.558;2023-06-04T00:55:42;4.80;;;1.77;;
5811;SDS011;2932;52.400;9.558;2023-06-04T00:58:08;1.67;;;1.00;;
5811;SDS011;2932;52.400;9.558;2023-06-04T01:00:34;1.90;;;1.13;;
5811;SDS011;2932;52.400;9.558;2023-06-04T01:03:02;2.80;;;1.10;;
5811;SDS011;2932;52.400;9.558;2023-06-04T01:05:35;1.30;;;1.00;;
5811;SDS011;2932;52.400;9.558;2023-06-04T01:08:05;2.23;;;0.90;;
5811;SDS011;2932;52.400;9.558;2023-06-04T01:10:35;1.60;;;1.30;;
5811;SDS011;2932;52.400;9.558;2023-06-04T01:13:00;2.40;;;1.00;;
5811;SDS011;2932;52.400;9.558;2023-06-04T01:15:26;2.77;;;1.00;;
5811;SDS011;2932;52.400;9.558;2023-06-04T01:17:53;1.33;;;0.73;;
5811;SDS011;2932;52.400;9.558;2023-06-04T01:20:25;1.63;;;1.07;;
5811;SDS011;2932;52.400;9.558;2023-06-04T01:23:12;1.50;;;1.10;;
5811;SDS011;2932;52.400;9.558;2023-06-04T01:25:43;2.67;;;1.00;;
5811;SDS011;2932;52.400;9.558;2023-06-04T01:28:10;1.57;;;0.90;;
5811;SDS011;2932;52.400;9.558;2023-06-04T01:30:37;1.83;;;1.20;;
5811;SDS011;2932;52.400;9.558;2023-06-04T01:33:08;2.00;;;1.13;;
5811;SDS011;2932;52.400;9.558;2023-06-04T01:35:35;1.33;;;1.00;;
5811;SDS011;2932;52.400;9.558;2023-06-04T01:38:00;2.10;;;1.00;;
5811;SDS011;2932;52.400;9.558;2023-06-04T01:40:26;1.50;;;1.30;;
5811;SDS011;2932;52.400;9.558;2023-06-04T01:42:52;1.17;;;1.00;;
5811;SDS011;2932;52.400;9.558;2023-06-04T01:45:17;1.57;;;1.30;;
5811;SDS011;2932;52.400;9.558;2023-06-04T01:47:43;1.90;;;1.07;;
5811;SDS011;2932;52.400;9.558;2023-06-04T01:50:08;1.93;;;1.27;;
5811;SDS011;2932;52.400;9.558;2023-06-04T01:52:37;3.23;;;1.33;;
5811;SDS011;2932;52.400;9.558;2023-06-04T01:55:08;1.50;;;1.20;;
5811;SDS011;2932;52.400;9.558;2023-06-04T01:57:36;3.37;;;1.57;;
5811;SDS011;2932;52.400;9.558;2023-06-04T02:00:03;2.87;;;1.50;;
5811;SDS011;2932;52.400;9.558;2023-06-04T02:02:32;4.77;;;1.67;;
5811;SDS011;2932;52.400;9.558;2023-06-04T02:04:58;3.63;;;1.60;;
5811;SDS011;2932;52.400;9.558;2023-06-04T02:07:23;2.17;;;1.40;;
5811;SDS011;2932;52.400;9.558;2023-06-04T02:09:48;2.50;;;1.73;;
5811;SDS011;2932;52.400;9.558;2023-06-04T02:12:14;3.70;;;1.57;;
5811;SDS011;2932;52.400;9.558;2023-06-04T02:14:40;1.53;;;1.30;;
5811;SDS011;2932;52.400;9.558;2023-06-04T02:17:07;5.50;;;1.80;;
5811;SDS011;2932;52.400;9.558;2023-06-04T02:19:40;2.37;;;1.50;;
5811;SDS011;2932;52.400;9.558;2023-06-04T02:22:10;2.37;;;1.30;;
5811;SDS011;2932;52.400;9.558;2023-06-04T02:24:38;2.43;;;1.13;;
5811;SDS011;2932;52.400;9.558;2023-06-04T02:27:04;2.20;;;1.20;;
5811;SDS011;2932;52.400;9.558;2023-06-04T02:29:31;2.10;;;1.17;;
5811;SDS011;2932;52.400;9.558;2023-06-04T02:31:56;3.07;;;1.10;;
5811;SDS011;2932;52.400;9.558;2023-06-04T02:34:22;1.20;;;1.10;;
5811;SDS011;2932;52.400;9.558;2023-06-04T02:36:48;1.23;;;1.13;;
5811;SDS011;2932;52.400;9.558;2023-06-04T02:39:15;1.73;;;1.40;;
5811;SDS011;2932;52.400;9.558;2023-06-04T02:41:41;1.53;;;1.10;;
5811;SDS011;2932;52.400;9.558;2023-06-04T02:44:07;1.73;;;1.10;;
5811;SDS011;2932;52.400;9.558;2023-06-04T02:46:35;1.73;;;1.23;;
5811;SDS011;2932;52.400;9.558;2023-06-04T02:49:00;3.10;;;1.27;;
5811;SDS011;2932;52.400;9.558;2023-06-04T02:51:25;1.43;;;1.10;;
5811;SDS011;2932;52.400;9.558;2023-06-04T02:53:53;3.27;;;1.20;;
5811;SDS011;2932;52.400;9.558;2023-06-04T02:56:19;2.23;;;1.33;;
5811;SDS011;2932;52.400;9.558;2023-06-04T02:58:52;1.63;;;1.50;;
5811;SDS011;2932;52.400;9.558;2023-06-04T03:01:22;2.03;;;1.40;;
5811;SDS011;2932;52.400;9.558;2023-06-04T03:03:48;3.60;;;1.63;;
5811;SDS011;2932;52.400;9.558;2023-06-04T03:06:15;1.73;;;1.20;;
5811;SDS011;2932;52.400;9.558;2023-06-04T03:08:41;1.73;;;1.20;;
5811;SDS011;2932;52.400;9.558;2023-06-04T03:11:08;1.70;;;1.30;;
5811;SDS011;2932;52.400;9.558;2023-06-04T03:13:33;3.40;;;1.50;;
5811;SDS011;2932;52.400;9.558;2023-06-04T03:15:59;2.47;;;1.13;;
5811;SDS011;2932;52.400;9.558;2023-06-04T03:18:29;3.33;;;1.70;;
5811;SDS011;2932;52.400;9.558;2023-06-04T03:20:55;2.30;;;1.93;;
5811;SDS011;2932;52.400;9.558;2023-06-04T03:23:20;2.27;;;1.40;;
5811;SDS011;2932;52.400;9.558;2023-06-04T03:25:49;3.70;;;1.20;;
5811;SDS011;2932;52.400;9.558;2023-06-04T03:28:15;2.70;;;1.50;;
5811;SDS011;2932;52.400;9.558;2023-06-04T03:30:40;3.33;;;1.50;;
5811;SDS011;2932;52.400;9.558;2023-06-04T03:33:06;3.10;;;1.60;;
5811;SDS011;2932;52.400;9.558;2023-06-04T03:35:35;1.80;;;1.50;;
5811;SDS011;2932;52.400;9.558;2023-06-04T03:38:00;2.17;;;1.53;;
5811;SDS011;2932;52.400;9.558;2023-06-04T03:40:25;2.87;;;1.27;;
5811;SDS011;2932;52.400;9.558;2023-06-04T03:42:51;1.73;;;1.20;;
5811;SDS011;2932;52.400;9.558;2023-06-04T03:45:16;1.57;;;1.27;;
5811;SDS011;2932;52.400;9.558;2023-06-04T03:47:41;1.90;;;1.10;;
5811;SDS011;2932;52.400;9.558;2023-06-04T03:50:07;3.50;;;1.40;;
5811;SDS011;2932;52.400;9.558;2023-06-04T03:52:32;3.40;;;1.30;;
5811;SDS011;2932;52.400;9.558;2023-06-04T03:54:58;4.13;;;1.40;;
5811;SDS011;2932;52.400;9.558;2023-06-04T03:57:26;2.13;;;1.00;;
5811;SDS011;2932;52.400;9.558;2023-06-04T03:59:52;1.70;;;1.20;;
5811;SDS011;2932;52.400;9.558;2023-06-04T04:02:17;1.40;;;1.20;;
5811;SDS011;2932;52.400;9.558;2023-06-04T04:04:43;2.07;;;1.40;;
5811;SDS011;2932;52.400;9.558;2023-06-04T04:07:09;1.17;;;1.07;;
5811;SDS011;2932;52.400;9.558;2023-06-04T04:09:37;1.33;;;1.13;;
5811;SDS011;2932;52.400;9.558;2023-06-04T04:12:03;1.20;;;1.00;;
5811;SDS011;2932;52.400;9.558;2023-06-04T04:14:29;2.13;;;1.10;;
5811;SDS011;2932;52.400;9.558;2023-06-04T04:16:54;1.83;;;1.40;;
5811;SDS011;2932;52.400;9.558;2023-06-04T04:19:19;4.73;;;2.57;;
5811;SDS011;2932;52.400;9.558;2023-06-04T04:21:45;4.83;;;3.47;;
5811;SDS011;2932;52.400;9.558;2023-06-04T04:24:34;4.20;;;3.03;;
5811;SDS011;2932;52.400;9.558;2023-06-04T04:27:00;3.73;;;2.63;;
5811;SDS011;2932;52.400;9.558;2023-06-04T04:29:28;1.53;;;1.30;;
5811;SDS011;2932;52.400;9.558;2023-06-04T04:31:57;3.07;;;2.03;;
5811;SDS011;2932;52.400;9.558;2023-06-04T04:34:25;4.27;;;2.23;;
5811;SDS011;2932;52.400;9.558;2023-06-04T04:36:51;1.97;;;1.40;;
5811;SDS011;2932;52.400;9.558;2023-06-04T04:39:24;4.27;;;1.50;;
5811;SDS011;2932;52.400;9.558;2023-06-04T04:41:50;3.90;;;1.40;;
5811;SDS011;2932;52.400;9.558;2023-06-04T04:44:16;1.87;;;1.50;;
5811;SDS011;2932;52.400;9.558;2023-06-04T04:46:41;2.97;;;1.87;;
5811;SDS011;2932;52.400;9.558;2023-06-04T04:49:07;2.27;;;1.27;;
5811;SDS011;2932;52.400;9.558;2023-06-04T04:51:32;2.00;;;1.20;;
5811;SDS011;2932;52.400;9.558;2023-06-04T04:53:58;1.30;;;1.20;;
5811;SDS011;2932;52.400;9.558;2023-06-04T04:56:29;4.87;;;4.10;;
5811;SDS011;2932;52.400;9.558;2023-06-04T04:58:54;6.10;;;4.17;;
5811;SDS011;2932;52.400;9.558;2023-06-04T05:01:20;7.40;;;4.83;;
5811;SDS011;2932;52.400;9.558;2023-06-04T05:03:46;2.70;;;1.67;;
5811;SDS011;2932;52.400;9.558;2023-06-04T05:06:11;1.33;;;1.23;;
5811;SDS011;2932;52.400;9.558;2023-06-04T05:08:37;2.20;;;1.67;;
5811;SDS011;2932;52.400;9.558;2023-06-04T05:11:02;2.37;;;1.57;;
5811;SDS011;2932;52.400;9.558;2023-06-04T05:13:28;1.77;;;1.60;;
5811;SDS011;2932;52.400;9.558;2023-06-04T05:15:53;2.63;;;1.30;;
5811;SDS011;2932;52.400;9.558;2023-06-04T05:18:19;2.27;;;1.17;;
5811;SDS011;2932;52.400;9.558;2023-06-04T05:20:56;1.83;;;1.20;;
5811;SDS011;2932;52.400;9.558;2023-06-04T05:23:24;1.73;;;1.13;;
5811;SDS011;2932;52.400;9.558;2023-06-04T05:25:50;1.20;;;1.00;;
5811;SDS011;2932;52.400;9.558;2023-06-04T05:28:15;1.43;;;1.10;;
5811;SDS011;2932;52.400;9.558;2023-06-04T05:30:41;1.33;;;1.00;;
5811;SDS011;2932;52.400;9.558;2023-06-04T05:33:06;1.50;;;1.03;;
5811;SDS011;2932;52.400;9.558;2023-06-04T05:35:36;2.47;;;1.23;;
5811;SDS011;2932;52.400;9.558;2023-06-04T05:38:06;1.30;;;1.20;;
5811;SDS011;2932;52.400;9.558;2023-06-04T05:40:31;2.93;;;1.10;;
5811;SDS011;2932;52.400;9.558;2023-06-04T05:42:57;2.07;;;1.27;;
5811;SDS011;2932;52.400;9.558;2023-06-04T05:45:22;3.17;;;1.00;;
5811;SDS011;2932;52.400;9.558;2023-06-04T05:47:53;3.33;;;1.10;;
5811;SDS011;2932;52.400;9.558;2023-06-04T05:50:18;1.10;;;1.00;;
5811;SDS011;2932;52.400;9.558;2023-06-04T05:52:44;1.20;;;1.10;;
5811;SDS011;2932;52.400;9.558;2023-06-04T05:55:09;2.00;;;1.10;;
5811;SDS011;2932;52.400;9.558;2023-06-04T05:57:35;2.27;;;1.10;;
5811;SDS011;2932;52.400;9.558;2023-06-04T06:00:00;3.07;;;1.03;;
5811;SDS011;2932;52.400;9.558;2023-06-04T06:02:25;2.10;;;1.30;;
5811;SDS011;2932;52.400;9.558;2023-06-04T06:04:51;2.13;;;1.37;;
5811;SDS011;2932;52.400;9.558;2023-06-04T06:07:17;3.43;;;1.33;;
5811;SDS011;2932;52.400;9.558;2023-06-04T06:09:44;1.70;;;1.10;;
5811;SDS011;2932;52.400;9.558;2023-06-04T06:12:09;1.17;;;1.07;;
5811;SDS011;2932;52.400;9.558;2023-06-04T06:14:35;1.77;;;1.40;;
5811;SDS011;2932;52.400;9.558;2023-06-04T06:17:00;1.20;;;1.10;;
5811;SDS011;2932;52.400;9.558;2023-06-04T06:19:28;1.20;;;1.10;;
5811;SDS011;2932;52.400;9.558;2023-06-04T06:21:53;1.50;;;1.17;;
5811;SDS011;2932;52.400;9.558;2023-06-04T06:24:18;1.77;;;1.23;;
5811;SDS011;2932;52.400;9.558;2023-06-04T06:26:44;1.45;;;1.10;;
5811;SDS011;2932;52.400;9.558;2023-06-04T06:29:09;1.50;;;1.08;;
5811;SDS011;2932;52.400;9.558;2023-06-04T06:31:35;1.73;;;1.30;;
5811;SDS011;2932;52.400;9.558;2023-06-04T06:34:00;1.35;;;1.00;;
5811;SDS011;2932;52.400;9.558;2023-06-04T06:36:25;3.10;;;1.10;;
5811;SDS011;2932;52.400;9.558;2023-06-04T06:38:51;0.90;;;0.90;;
5811;SDS011;2932;52.400;9.558;2023-06-04T06:41:17;4.55;;;0.98;;
5811;SDS011;2932;52.400;9.558;2023-06-04T06:43:45;2.22;;;1.27;;
5811;SDS011;2932;52.400;9.558;2023-06-04T06:46:14;2.08;;;1.30;;
5811;SDS011;2932;52.400;9.558;2023-06-04T06:48:39;5.07;;;1.17;;
5811;SDS011;2932;52.400;9.558;2023-06-04T06:51:08;4.28;;;1.35;;
5811;SDS011;2932;52.400;9.558;2023-06-04T06:53:33;1.67;;;1.00;;
5811;SDS011;2932;52.400;9.558;2023-06-04T06:56:01;4.53;;;1.20;;
5811;SDS011;2932;52.400;9.558;2023-06-04T06:58:27;1.50;;;1.00;;
5811;SDS011;2932;52.400;9.558;2023-06-04T07:00:52;1.95;;;1.20;;
5811;SDS011;2932;52.400;9.558;2023-06-04T07:03:19;2.60;;;1.30;;
5811;SDS011;2932;52.400;9.558;2023-06-04T07:05:45;1.67;;;1.10;;
5811;SDS011;2932;52.400;9.558;2023-06-04T07:08:10;4.18;;;1.13;;
5811;SDS011;2932;52.400;9.558;2023-06-04T07:10:35;1.20;;;1.10;;
5811;SDS011;2932;52.400;9.558;2023-06-04T07:13:01;1.00;;;1.00;;
5811;SDS011;2932;52.400;9.558;2023-06-04T07:15:26;3.38;;;1.20;;
5811;SDS011;2932;52.400;9.558;2023-06-04T07:17:51;1.40;;;1.30;;
5811;SDS011;2932;52.400;9.558;2023-06-04T07:20:17;2.45;;;1.08;;
5811;SDS011;2932;52.400;9.558;2023-06-04T07:22:42;2.25;;;0.88;;
5811;SDS011;2932;52.400;9.558;2023-06-04T07:25:08;1.10;;;1.00;;
5811;SDS011;2932;52.400;9.558;2023-06-04T07:27:33;3.60;;;1.40;;
5811;SDS011;2932;52.400;9.558;2023-06-04T07:29:59;1.45;;;1.10;;
5811;SDS011;2932;52.400;9.558;2023-06-04T07:32:25;1.27;;;1.08;;
5811;SDS011;2932;52.400;9.558;2023-06-04T07:34:50;1.27;;;1.17;;
5811;SDS011;2932;52.400;9.558;2023-06-04T07:37:15;1.25;;;1.10;;
5811;SDS011;2932;52.400;9.558;2023-06-04T07:39:41;1.95;;;1.10;;
5811;SDS011;2932;52.400;9.558;2023-06-04T07:42:06;1.65;;;0.90;;
5811;SDS011;2932;52.400;9.558;2023-06-04T07:44:32;3.67;;;1.20;;
5811;SDS011;2932;52.400;9.558;2023-06-04T07:46:57;2.33;;;1.05;;
5811;SDS011;2932;52.400;9.558;2023-06-04T07:49:23;2.20;;;1.10;;
5811;SDS011;2932;52.400;9.558;2023-06-04T07:51:48;2.97;;;1.15;;
5811;SDS011;2932;52.400;9.558;2023-06-04T07:54:13;1.88;;;1.10;;
5811;SDS011;2932;52.400;9.558;2023-06-04T07:56:39;2.40;;;1.10;;
5811;SDS011;2932;52.400;9.558;2023-06-04T07:59:04;3.63;;;1.15;;
5811;SDS011;2932;52.400;9.558;2023-06-04T08:01:29;2.00;;;1.30;;
5811;SDS011;2932;52.400;9.558;2023-06-04T08:03:58;1.27;;;1.00;;
5811;SDS011;2932;52.400;9.558;2023-06-04T08:06:26;1.63;;;1.10;;
5811;SDS011;2932;52.400;9.558;2023-06-04T08:08:51;1.73;;;1.40;;
5811;SDS011;2932;52.400;9.558;2023-06-04T08:11:17;1.60;;;1.30;;
5811;SDS011;2932;52.400;9.558;2023-06-04T08:13:43;1.42;;;1.27;;
5811;SDS011;2932;52.400;9.558;2023-06-04T08:16:08;1.45;;;1.20;;
5811;SDS011;2932;52.400;9.558;2023-06-04T08:18:38;0.85;;;0.85;;
5811;SDS011;2932;52.400;9.558;2023-06-04T08:21:04;2.13;;;1.00;;
5811;SDS011;2932;52.400;9.558;2023-06-04T08:23:31;1.67;;;1.20;;
5811;SDS011;2932;52.400;9.558;2023-06-04T08:25:56;1.70;;;1.15;;
5811;SDS011;2932;52.400;9.558;2023-06-04T08:28:21;2.42;;;1.00;;
5811;SDS011;2932;52.400;9.558;2023-06-04T08:30:47;1.63;;;1.05;;
5811;SDS011;2932;52.400;9.558;2023-06-04T08:33:13;1.90;;;1.25;;
5811;SDS011;2932;52.400;9.558;2023-06-04T08:35:38;1.65;;;1.10;;
5811;SDS011;2932;52.400;9.558;2023-06-04T08:38:03;2.65;;;1.17;;
5811;SDS011;2932;52.400;9.558;2023-06-04T08:40:29;0.90;;;0.90;;
5811;SDS011;2932;52.400;9.558;2023-06-04T08:42:55;1.65;;;1.00;;
5811;SDS011;2932;52.400;9.558;2023-06-04T08:45:24;1.20;;;0.93;;
5811;SDS011;2932;52.400;9.558;2023-06-04T08:47:50;2.80;;;1.65;;
5811;SDS011;2932;52.400;9.558;2023-06-04T08:50:17;1.35;;;1.00;;
5811;SDS011;2932;52.400;9.558;2023-06-04T08:52:43;2.42;;;1.20;;
5811;SDS011;2932;52.400;9.558;2023-06-04T08:55:10;1.10;;;1.00;;
5811;SDS011;2932;52.400;9.558;2023-06-04T08:57:39;1.02;;;0.90;;
5811;SDS011;2932;52.400;9.558;2023-06-04T09:00:05;4.90;;;3.10;;
5811;SDS011;2932;52.400;9.558;2023-06-04T09:02:33;2.42;;;1.15;;
5811;SDS011;2932;52.400;9.558;2023-06-04T09:05:05;1.33;;;1.20;;
5811;SDS011;2932;52.400;9.558;2023-06-04T09:07:35;1.65;;;0.85;;
5811;SDS011;2932;52.400;9.558;2023-06-04T09:10:04;1.83;;;1.23;;
5811;SDS011;2932;52.400;9.558;2023-06-04T09:12:30;1.63;;;0.85;;
5811;SDS011;2932;52.400;9.558;2023-06-04T09:14:58;1.85;;;0.80;;
5811;SDS011;2932;52.400;9.558;2023-06-04T09:17:24;1.98;;;0.70;;
5811;SDS011;2932;52.400;9.558;2023-06-04T09:19:50;0.77;;;0.75;;
5811;SDS011;2932;52.400;9.558;2023-06-04T09:22:16;1.98;;;0.95;;
5811;SDS011;2932;52.400;9.558;2023-06-04T09:24:43;1.98;;;0.63;;
5811;SDS011;2932;52.400;9.558;2023-06-04T09:27:18;1.88;;;0.75;;
5811;SDS011;2932;52.400;9.558;2023-06-04T09:29:55;1.27;;;0.70;;
5811;SDS011;2932;52.400;9.558;2023-06-04T09:32:28;2.65;;;0.80;;
5811;SDS011;2932;52.400;9.558;2023-06-04T09:35:08;1.48;;;0.90;;
5811;SDS011;2932;52.400;9.558;2023-06-04T09:37:39;2.53;;;0.90;;
5811;SDS011;2932;52.400;9.558;2023-06-04T09:40:06;2.45;;;1.33;;
5811;SDS011;2932;52.400;9.558;2023-06-04T09:42:44;0.90;;;0.85;;
5811;SDS011;2932;52.400;9.558;2023-06-04T09:45:11;3.03;;;1.17;;
5811;SDS011;2932;52.400;9.558;2023-06-04T09:47:43;1.65;;;1.00;;
5811;SDS011;2932;52.400;9.558;2023-06-04T09:50:10;1.30;;;0.95;;
5811;SDS011;2932;52.400;9.558;2023-06-04T09:52:37;1.10;;;1.00;;
5811;SDS011;2932;52.400;9.558;2023-06-04T09:55:14;1.05;;;0.80;;
5811;SDS011;2932;52.400;9.558;2023-06-04T09:57:44;1.33;;;0.98;;
5811;SDS011;2932;52.400;9.558;2023-06-04T10:00:12;1.95;;;0.90;;
5811;SDS011;2932;52.400;9.558;2023-06-04T10:02:40;1.95;;;0.85;;
5811;SDS011;2932;52.400;9.558;2023-06-04T10:05:08;1.35;;;0.77;;
5811;SDS011;2932;52.400;9.558;2023-06-04T10:07:37;1.70;;;0.88;;
5811;SDS011;2932;52.400;9.558;2023-06-04T10:10:03;1.40;;;0.80;;
5811;SDS011;2932;52.400;9.558;2023-06-04T10:12:30;2.30;;;1.02;;
5811;SDS011;2932;52.400;9.558;2023-06-04T10:15:05;1.83;;;0.68;;
5811;SDS011;2932;52.400;9.558;2023-06-04T10:17:32;0.80;;;0.80;;
5811;SDS011;2932;52.400;9.558;2023-06-04T10:19:59;2.78;;;0.80;;
5811;SDS011;2932;52.400;9.558;2023-06-04T10:22:31;2.17;;;0.73;;
5811;SDS011;2932;52.400;9.558;2023-06-04T10:24:58;1.55;;;1.10;;
5811;SDS011;2932;52.400;9.558;2023-06-04T10:27:23;1.48;;;1.05;;
5811;SDS011;2932;52.400;9.558;2023-06-04T10:29:49;1.00;;;0.95;;
5811;SDS011;2932;52.400;9.558;2023-06-04T10:32:15;2.88;;;1.30;;
5811;SDS011;2932;52.400;9.558;2023-06-04T10:34:41;2.45;;;1.60;;
5811;SDS011;2932;52.400;9.558;2023-06-04T10:37:18;1.35;;;1.20;;
5811;SDS011;2932;52.400;9.558;2023-06-04T10:39:49;1.02;;;0.93;;
5811;SDS011;2932;52.400;9.558;2023-06-04T10:42:19;1.80;;;0.90;;
5811;SDS011;2932;52.400;9.558;2023-06-04T10:44:46;1.20;;;1.02;;
5811;SDS011;2932;52.400;9.558;2023-06-04T10:49:44;1.30;;;1.00;;
5811;SDS011;2932;52.400;9.558;2023-06-04T10:52:10;0.80;;;0.80;;
5811;SDS011;2932;52.400;9.558;2023-06-04T10:54:36;2.30;;;0.70;;
5811;SDS011;2932;52.400;9.558;2023-06-04T10:57:09;1.45;;;1.00;;
5811;SDS011;2932;52.400;9.558;2023-06-04T10:59:38;1.77;;;1.00;;
5811;SDS011;2932;52.400;9.558;2023-06-04T11:02:04;0.95;;;0.95;;
5811;SDS011;2932;52.400;9.558;2023-06-04T11:04:31;0.90;;;0.90;;
5811;SDS011;2932;52.400;9.558;2023-06-04T11:07:03;1.90;;;0.98;;
5811;SDS011;2932;52.400;9.558;2023-06-04T11:09:34;1.60;;;0.80;;
5811;SDS011;2932;52.400;9.558;2023-06-04T11:12:00;1.10;;;0.80;;
5811;SDS011;2932;52.400;9.558;2023-06-04T11:14:27;0.70;;;0.70;;
5811;SDS011;2932;52.400;9.558;2023-06-04T11:16:55;1.75;;;0.90;;
5811;SDS011;2932;52.400;9.558;2023-06-04T11:19:20;2.55;;;1.00;;
5811;SDS011;2932;52.400;9.558;2023-06-04T11:21:46;2.28;;;1.00;;
5811;SDS011;2932;52.400;9.558;2023-06-04T11:24:12;2.63;;;0.70;;
5811;SDS011;2932;52.400;9.558;2023-06-04T11:26:37;2.08;;;0.80;;
5811;SDS011;2932;52.400;9.558;2023-06-04T11:29:07;2.22;;;1.20;;
5811;SDS011;2932;52.400;9.558;2023-06-04T11:31:44;1.08;;;0.90;;
5811;SDS011;2932;52.400;9.558;2023-06-04T11:34:10;2.00;;;0.90;;
5811;SDS011;2932;52.400;9.558;2023-06-04T11:36:38;1.20;;;1.00;;
5811;SDS011;2932;52.400;9.558;2023-06-04T11:39:04;2.15;;;0.82;;
5811;SDS011;2932;52.400;9.558;2023-06-04T11:41:31;0.90;;;0.90;;
5811;SDS011;2932;52.400;9.558;2023-06-04T11:44:00;0.80;;;0.70;;
5811;SDS011;2932;52.400;9.558;2023-06-04T11:46:33;1.00;;;0.88;;
5811;SDS011;2932;52.400;9.558;2023-06-04T11:49:02;1.15;;;0.80;;
5811;SDS011;2932;52.400;9.558;2023-06-04T11:51:27;0.95;;;0.77;;
5811;SDS011;2932;52.400;9.558;2023-06-04T11:53:54;0.90;;;0.90;;
5811;SDS011;2932;52.400;9.558;2023-06-04T11:56:20;1.10;;;0.70;;
5811;SDS011;2932;52.400;9.558;2023-06-04T11:58:46;3.05;;;1.10;;
5811;SDS011;2932;52.400;9.558;2023-06-04T12:01:11;2.17;;;1.00;;
5811;SDS011;2932;52.400;9.558;2023-06-04T12:03:41;1.30;;;1.20;;
5811;SDS011;2932;52.400;9.558;2023-06-04T12:06:17;1.85;;;1.58;;
5811;SDS011;2932;52.400;9.558;2023-06-04T12:08:45;2.50;;;0.80;;
5811;SDS011;2932;52.400;9.558;2023-06-04T12:11:22;1.83;;;1.10;;
5811;SDS011;2932;52.400;9.558;2023-06-04T12:13:54;1.00;;;0.75;;
5811;SDS011;2932;52.400;9.558;2023-06-04T12:16:20;1.25;;;1.15;;
5811;SDS011;2932;52.400;9.558;2023-06-04T12:18:46;0.88;;;0.88;;
5811;SDS011;2932;52.400;9.558;2023-06-04T12:21:20;1.58;;;1.20;;
5811;SDS011;2932;52.400;9.558;2023-06-04T12:23:51;3.03;;;2.10;;
5811;SDS011;2932;52.400;9.558;2023-06-04T12:26:30;3.67;;;3.03;;
5811;SDS011;2932;52.400;9.558;2023-06-04T12:28:58;2.33;;;1.48;;
5811;SDS011;2932;52.400;9.558;2023-06-04T12:31:24;2.47;;;1.13;;
5811;SDS011;2932;52.400;9.558;2023-06-04T12:33:49;2.90;;;0.90;;
5811;SDS011;2932;52.400;9.558;2023-06-04T12:36:15;2.55;;;0.90;;
5811;SDS011;2932;52.400;9.558;2023-06-04T12:38:40;2.05;;;0.95;;
5811;SDS011;2932;52.400;9.558;2023-06-04T12:41:05;1.25;;;1.15;;
5811;SDS011;2932;52.400;9.558;2023-06-04T12:43:31;1.58;;;1.00;;
5811;SDS011;2932;52.400;9.558;2023-06-04T12:45:59;1.10;;;1.00;;
5811;SDS011;2932;52.400;9.558;2023-06-04T12:48:24;1.77;;;0.90;;
5811;SDS011;2932;52.400;9.558;2023-06-04T12:50:50;0.80;;;0.70;;
5811;SDS011;2932;52.400;9.558;2023-06-04T12:53:15;1.75;;;1.10;;
5811;SDS011;2932;52.400;9.558;2023-06-04T12:55:43;2.05;;;1.45;;
5811;SDS011;2932;52.400;9.558;2023-06-04T12:58:09;0.93;;;0.85;;
5811;SDS011;2932;52.400;9.558;2023-06-04T13:00:34;2.97;;;1.15;;
5811;SDS011;2932;52.400;9.558;2023-06-04T13:03:00;0.90;;;0.90;;
5811;SDS011;2932;52.400;9.558;2023-06-04T13:05:25;1.50;;;1.25;;
5811;SDS011;2932;52.400;9.558;2023-06-04T13:07:50;1.33;;;1.20;;
5811;SDS011;2932;52.400;9.558;2023-06-04T13:10:16;1.17;;;1.08;;
5811;SDS011;2932;52.400;9.558;2023-06-04T13:12:41;1.20;;;1.10;;
5811;SDS011;2932;52.400;9.558;2023-06-04T13:15:07;2.75;;;1.08;;
5811;SDS011;2932;52.400;9.558;2023-06-04T13:17:32;1.40;;;1.15;;
5811;SDS011;2932;52.400;9.558;2023-06-04T13:19:58;2.00;;;1.02;;
5811;SDS011;2932;52.400;9.558;2023-06-04T13:22:24;1.20;;;1.10;;
5811;SDS011;2932;52.400;9.558;2023-06-04T13:24:49;1.67;;;0.98;;
5811;SDS011;2932;52.400;9.558;2023-06-04T13:27:14;1.63;;;0.95;;
5811;SDS011;2932;52.400;9.558;2023-06-04T13:29:40;1.05;;;0.77;;
5811;SDS011;2932;52.400;9.558;2023-06-04T13:32:05;1.15;;;0.93;;
5811;SDS011;2932;52.400;9.558;2023-06-04T13:34:34;1.40;;;1.20;;
5811;SDS011;2932;52.400;9.558;2023-06-04T13:36:59;3.75;;;1.10;;
5811;SDS011;2932;52.400;9.558;2023-06-04T13:39:25;1.30;;;0.93;;
5811;SDS011;2932;52.400;9.558;2023-06-04T13:41:50;0.70;;;0.70;;
5811;SDS011;2932;52.400;9.558;2023-06-04T13:44:15;1.17;;;1.10;;
5811;SDS011;2932;52.400;9.558;2023-06-04T13:46:41;1.05;;;0.95;;
5811;SDS011;2932;52.400;9.558;2023-06-04T13:49:07;1.65;;;1.02;;
5811;SDS011;2932;52.400;9.558;2023-06-04T13:51:32;1.27;;;1.15;;
5811;SDS011;2932;52.400;9.558;2023-06-04T13:53:57;1.45;;;1.10;;
5811;SDS011;2932;52.400;9.558;2023-06-04T13:56:23;0.88;;;0.80;;
5811;SDS011;2932;52.400;9.558;2023-06-04T13:58:50;1.05;;;1.00;;
5811;SDS011;2932;52.400;9.558;2023-06-04T14:01:15;0.70;;;0.70;;
5811;SDS011;2932;52.400;9.558;2023-06-04T14:03:41;1.20;;;1.10;;
5811;SDS011;2932;52.400;9.558;2023-06-04T14:06:07;1.20;;;1.10;;
5811;SDS011;2932;52.400;9.558;2023-06-04T14:08:32;1.70;;;1.00;;
5811;SDS011;2932;52.400;9.558;2023-06-04T14:10:57;2.03;;;1.50;;
5811;SDS011;2932;52.400;9.558;2023-06-04T14:13:23;1.45;;;1.35;;
5811;SDS011;2932;52.400;9.558;2023-06-04T14:15:48;2.03;;;1.30;;
5811;SDS011;2932;52.400;9.558;2023-06-04T14:18:13;1.83;;;1.30;;
5811;SDS011;2932;52.400;9.558;2023-06-04T14:20:39;1.65;;;0.80;;
5811;SDS011;2932;52.400;9.558;2023-06-04T14:23:05;1.38;;;1.02;;
5811;SDS011;2932;52.400;9.558;2023-06-04T14:25:30;1.10;;;1.00;;
5811;SDS011;2932;52.400;9.558;2023-06-04T14:27:57;1.25;;;1.10;;
5811;SDS011;2932;52.400;9.558;2023-06-04T14:30:22;1.23;;;1.02;;
5811;SDS011;2932;52.400;9.558;2023-06-04T14:32:48;1.20;;;1.00;;
5811;SDS011;2932;52.400;9.558;2023-06-04T14:35:13;1.55;;;1.20;;
5811;SDS011;2932;52.400;9.558;2023-06-04T14:37:38;2.30;;;1.15;;
5811;SDS011;2932;52.400;9.558;2023-06-04T14:40:04;1.50;;;1.20;;
5811;SDS011;2932;52.400;9.558;2023-06-04T14:42:30;2.40;;;1.10;;
5811;SDS011;2932;52.400;9.558;2023-06-04T14:44:55;1.80;;;1.13;;
5811;SDS011;2932;52.400;9.558;2023-06-04T14:47:23;1.52;;;1.05;;
5811;SDS011;2932;52.400;9.558;2023-06-04T14:49:49;0.93;;;0.82;;
5811;SDS011;2932;52.400;9.558;2023-06-04T14:52:14;1.30;;;1.10;;
5811;SDS011;2932;52.400;9.558;2023-06-04T14:54:41;1.35;;;1.08;;
5811;SDS011;2932;52.400;9.558;2023-06-04T14:57:06;1.35;;;1.02;;
5811;SDS011;2932;52.400;9.558;2023-06-04T14:59:31;0.82;;;0.80;;
5811;SDS011;2932;52.400;9.558;2023-06-04T15:01:58;1.15;;;1.05;;
5811;SDS011;2932;52.400;9.558;2023-06-04T15:04:23;0.98;;;0.90;;
5811;SDS011;2932;52.400;9.558;2023-06-04T15:06:49;1.17;;;1.08;;
5811;SDS011;2932;52.400;9.558;2023-06-04T15:09:14;3.20;;;1.40;;
5811;SDS011;2932;52.400;9.558;2023-06-04T15:11:40;1.30;;;1.20;;
5811;SDS011;2932;52.400;9.558;2023-06-04T15:14:06;2.50;;;1.13;;
5811;SDS011;2932;52.400;9.558;2023-06-04T15:16:31;1.20;;;1.10;;